Time;durP1;ratioP1;P1;durP2;ratioP2;P2;SDS_P1;SDS_P2;PMS_P1;PMS_P2;Temp;Humidity;BMP_temperature;BMP_pressure;BME280_temperature;BME280_humidity;BME280_pressure;Samples;Min_cycle;Max_cycle;Signal;HPM_P1;HPM_P2
2022/09/14 00:02:12;;;;;;;;;;;20.20;48.20;;;;;;6242115;23;19903;-85
2022/09/14 00:04:39;;;;;;;;;;;20.20;48.20;;;;;;6243342;22;20350;-84
2022/09/14 00:07:04;;;;;;;;;;;20.20;48.20;;;;;;6245434;22;19966;-87
2022/09/14 00:09:30;;;;;;;;;;;20.20;48.20;;;;;;6243008;22;19916;-88
2022/09/14 00:11:55;;;;;;;;;;;20.20;48.20;;;;;;6240870;23;19926;-88
2022/09/14 00:14:21;;;;;;;;;;;20.10;48.30;;;;;;6243786;22;20387;-91
2022/09/14 00:16:47;;;;;;;;;;;20.10;48.30;;;;;;6246141;23;19910;-87
2022/09/14 00:19:21;;;;;;;;;;;20.00;48.40;;;;;;6266797;22;19927;-87
2022/09/14 00:21:51;;;;;;;;;;;20.10;48.50;;;;;;6242725;22;19988;-85
2022/09/14 00:24:16;;;;;;;;;;;20.00;48.50;;;;;;6240703;22;20302;-91
2022/09/14 00:26:42;;;;;;;;;;;20.00;48.60;;;;;;6244568;23;19995;-87
2022/09/14 00:29:09;;;;;;;;;;;20.00;48.70;;;;;;6241611;22;20223;-87
2022/09/14 00:31:36;;;;;;;;;;;20.00;48.80;;;;;;6241795;23;19955;-90
2022/09/14 00:34:02;;;;;;;;;;;20.00;48.90;;;;;;6245065;22;19918;-88
2022/09/14 00:36:28;;;;;;;;;;;19.90;49.20;;;;;;6252427;22;19919;-92
2022/09/14 00:38:55;;;;;;;;;;;19.90;49.60;;;;;;6242274;22;20319;-87
2022/09/14 00:41:26;;;;;;;;;;;19.80;49.60;;;;;;6242501;23;19911;-91
2022/09/14 00:44:00;;;;;;;;;;;19.80;49.60;;;;;;6241209;22;19915;-87
2022/09/14 00:46:28;;;;;;;;;;;19.80;49.60;;;;;;6247123;23;19923;-87
2022/09/14 00:48:54;;;;;;;;;;;19.80;49.70;;;;;;6242471;22;19916;-87
2022/09/14 00:51:20;;;;;;;;;;;19.80;49.70;;;;;;6241005;23;20801;-88
2022/09/14 00:53:46;;;;;;;;;;;19.80;49.70;;;;;;6242712;22;19958;-88
2022/09/14 00:56:13;;;;;;;;;;;19.80;49.90;;;;;;6243604;23;19918;-85
2022/09/14 00:58:39;;;;;;;;;;;19.80;50.00;;;;;;6243097;22;20316;-87
2022/09/14 01:01:04;;;;;;;;;;;19.80;50.30;;;;;;6243796;22;19935;-87
2022/09/14 01:03:30;;;;;;;;;;;19.80;50.30;;;;;;6246256;22;19908;-88
2022/09/14 01:06:03;;;;;;;;;;;19.70;50.20;;;;;;6243592;23;19915;-88
2022/09/14 01:08:50;;;;;;;;;;;19.70;50.10;;;;;;6244661;22;19907;-88
2022/09/14 01:11:19;;;;;;;;;;;19.60;50.00;;;;;;6247349;23;19915;-88
2022/09/14 01:13:51;;;;;;;;;;;19.50;50.00;;;;;;6242793;22;19907;-91
2022/09/14 01:16:20;;;;;;;;;;;19.50;50.00;;;;;;6267710;22;19926;-90
2022/09/14 01:18:48;;;;;;;;;;;19.40;50.00;;;;;;6241079;22;19911;-91
2022/09/14 01:21:15;;;;;;;;;;;19.40;50.00;;;;;;6243736;22;19915;-87
2022/09/14 01:23:50;;;;;;;;;;;19.40;50.10;;;;;;6242989;22;20316;-85
2022/09/14 01:26:27;;;;;;;;;;;19.40;50.10;;;;;;6247704;23;19955;-89
2022/09/14 01:29:10;;;;;;;;;;;19.30;50.10;;;;;;6239538;22;19904;-87
2022/09/14 01:31:54;;;;;;;;;;;19.30;50.20;;;;;;6248973;22;20006;-91
2022/09/14 01:34:19;;;;;;;;;;;19.30;50.20;;;;;;6242833;22;20395;-87
2022/09/14 01:36:48;;;;;;;;;;;19.30;50.20;;;;;;6244338;23;20259;-85
2022/09/14 01:39:15;;;;;;;;;;;19.30;50.20;;;;;;6241984;22;19911;-89
2022/09/14 01:41:41;;;;;;;;;;;19.30;50.20;;;;;;6242813;22;20375;-87
2022/09/14 01:44:08;;;;;;;;;;;19.30;50.20;;;;;;6241292;22;19907;-88
2022/09/14 01:46:37;;;;;;;;;;;19.30;50.20;;;;;;6242684;23;19912;-86
2022/09/14 01:49:26;;;;;;;;;;;19.30;50.30;;;;;;6245473;22;19903;-84
2022/09/14 01:51:57;;;;;;;;;;;19.30;50.50;;;;;;6227538;23;19926;-88
2022/09/14 01:54:41;;;;;;;;;;;19.20;50.60;;;;;;6242564;22;19962;-88
2022/09/14 01:57:07;;;;;;;;;;;19.20;50.70;;;;;;6242160;23;19979;-88
2022/09/14 01:59:36;;;;;;;;;;;19.20;51.00;;;;;;6246026;22;19915;-90
2022/09/14 02:02:04;;;;;;;;;;;19.20;51.20;;;;;;6240634;22;19979;-87
2022/09/14 02:04:42;;;;;;;;;;;19.20;51.10;;;;;;6241922;22;19912;-90
2022/09/14 02:07:08;;;;;;;;;;;19.20;51.10;;;;;;6245679;23;19912;-88
2022/09/14 02:09:33;;;;;;;;;;;19.20;51.00;;;;;;6246805;22;19916;-92
2022/09/14 02:11:59;;;;;;;;;;;19.20;50.90;;;;;;6245774;22;19908;-87
2022/09/14 02:14:25;;;;;;;;;;;19.10;50.90;;;;;;6247446;22;19904;-88
2022/09/14 02:16:51;;;;;;;;;;;19.10;51.20;;;;;;6246951;23;19914;-88
2022/09/14 02:19:17;;;;;;;;;;;19.00;51.20;;;;;;6246526;22;20272;-91
2022/09/14 02:21:42;;;;;;;;;;;19.00;51.20;;;;;;6242962;22;19998;-91
2022/09/14 02:24:08;;;;;;;;;;;18.90;51.20;;;;;;6243682;22;19904;-89
2022/09/14 02:26:34;;;;;;;;;;;18.90;51.40;;;;;;6241840;23;20375;-84
2022/09/14 02:28:59;;;;;;;;;;;18.80;51.50;;;;;;6241291;22;20609;-87
2022/09/14 02:31:34;;;;;;;;;;;18.80;51.40;;;;;;6243550;23;19930;-84
2022/09/14 02:34:18;;;;;;;;;;;18.80;51.70;;;;;;6239895;22;19912;-92
2022/09/14 02:36:43;;;;;;;;;;;18.70;52.10;;;;;;6239425;23;19911;-87
2022/09/14 02:39:15;;;;;;;;;;;18.60;52.30;;;;;;6241687;22;20356;-91
2022/09/14 02:41:47;;;;;;;;;;;18.60;52.50;;;;;;6242927;22;19919;-88
2022/09/14 02:44:25;;;;;;;;;;;18.60;52.60;;;;;;6242558;22;19904;-87
2022/09/14 02:46:50;;;;;;;;;;;18.60;52.70;;;;;;6242341;23;19919;-87
2022/09/14 02:49:16;;;;;;;;;;;18.60;52.50;;;;;;6246061;22;20316;-85
2022/09/14 02:51:53;;;;;;;;;;;18.50;52.50;;;;;;6247443;23;19916;-88
2022/09/14 02:54:25;;;;;;;;;;;18.50;52.60;;;;;;6242270;22;20334;-87
2022/09/14 02:56:51;;;;;;;;;;;18.50;52.90;;;;;;6242353;22;20410;-87
2022/09/14 02:59:17;;;;;;;;;;;18.40;53.00;;;;;;6244166;22;19938;-87
2022/09/14 03:01:43;;;;;;;;;;;18.40;53.20;;;;;;6241947;23;20014;-85
2022/09/14 03:04:08;;;;;;;;;;;18.40;53.30;;;;;;6238988;22;19978;-85
2022/09/14 03:06:34;;;;;;;;;;;18.40;53.40;;;;;;6244806;23;19923;-85
2022/09/14 03:09:00;;;;;;;;;;;18.40;53.50;;;;;;6242313;22;20339;-91
2022/09/14 03:11:26;;;;;;;;;;;18.30;53.70;;;;;;6243991;22;20012;-88
2022/09/14 03:13:51;;;;;;;;;;;18.30;53.60;;;;;;6242736;22;19946;-88
2022/09/14 03:16:18;;;;;;;;;;;18.30;53.60;;;;;;6242138;23;19919;-89
2022/09/14 03:18:43;;;;;;;;;;;18.30;53.60;;;;;;6248352;22;19911;-87
2022/09/14 03:21:13;;;;;;;;;;;18.30;53.50;;;;;;6241419;22;19957;-90
2022/09/14 03:23:40;;;;;;;;;;;18.20;53.30;;;;;;6243133;22;19911;-87
2022/09/14 03:26:06;;;;;;;;;;;18.20;53.10;;;;;;6240544;22;19915;-87
2022/09/14 03:28:32;;;;;;;;;;;18.20;53.30;;;;;;6241040;22;19918;-84
2022/09/14 03:31:01;;;;;;;;;;;18.20;53.30;;;;;;6243072;23;20231;-87
2022/09/14 03:33:27;;;;;;;;;;;18.10;53.30;;;;;;6241441;22;20399;-85
2022/09/14 03:35:52;;;;;;;;;;;18.10;53.20;;;;;;6241533;23;19938;-92
2022/09/14 03:38:18;;;;;;;;;;;18.10;53.30;;;;;;6251957;22;19911;-88
2022/09/14 03:40:43;;;;;;;;;;;18.10;53.20;;;;;;6243840;23;19966;-87
2022/09/14 03:43:11;;;;;;;;;;;18.10;53.10;;;;;;6244970;22;19915;-86
2022/09/14 03:45:38;;;;;;;;;;;18.00;53.10;;;;;;6243533;22;19927;-85
2022/09/14 03:48:04;;;;;;;;;;;18.10;53.00;;;;;;6241746;22;19914;-90
2022/09/14 03:50:29;;;;;;;;;;;18.10;53.10;;;;;;6245661;22;20386;-88
2022/09/14 03:52:55;;;;;;;;;;;18.00;53.30;;;;;;6240626;22;19908;-88
2022/09/14 03:55:20;;;;;;;;;;;18.00;53.30;;;;;;6242304;23;19927;-85
2022/09/14 03:57:46;;;;;;;;;;;18.00;53.20;;;;;;6240941;22;19915;-88
2022/09/14 04:00:11;;;;;;;;;;;18.00;53.20;;;;;;6242792;23;19911;-88
2022/09/14 04:02:37;;;;;;;;;;;18.00;53.20;;;;;;6245974;23;19914;-90
2022/09/14 04:05:03;;;;;;;;;;;18.00;53.20;;;;;;6240049;22;19947;-90
2022/09/14 04:07:29;;;;;;;;;;;18.10;53.20;;;;;;6245150;23;19919;-84
2022/09/14 04:09:55;;;;;;;;;;;18.10;53.20;;;;;;6240978;22;19908;-87
2022/09/14 04:12:20;;;;;;;;;;;18.00;53.10;;;;;;6247054;22;20283;-87
2022/09/14 04:14:46;;;;;;;;;;;18.00;53.10;;;;;;6246188;22;20319;-87
2022/09/14 04:17:11;;;;;;;;;;;18.10;53.10;;;;;;6242936;23;19990;-87
2022/09/14 04:19:37;;;;;;;;;;;18.10;53.10;;;;;;6241765;22;20002;-86
2022/09/14 04:22:03;;;;;;;;;;;18.10;53.10;;;;;;6242605;23;19911;-87
2022/09/14 04:24:28;;;;;;;;;;;18.10;53.10;;;;;;6265561;22;20173;-86
2022/09/14 04:26:54;;;;;;;;;;;18.10;53.10;;;;;;6242732;23;19942;-90
2022/09/14 04:29:19;;;;;;;;;;;18.10;53.10;;;;;;6243397;22;19903;-85
2022/09/14 04:31:45;;;;;;;;;;;18.10;53.10;;;;;;6248272;23;19926;-87
2022/09/14 04:34:11;;;;;;;;;;;18.10;53.00;;;;;;6242329;22;19903;-91
2022/09/14 04:36:37;;;;;;;;;;;18.10;53.00;;;;;;6247208;22;19911;-84
2022/09/14 04:39:02;;;;;;;;;;;18.10;53.00;;;;;;6239258;22;19982;-91
2022/09/14 04:41:28;;;;;;;;;;;18.10;53.00;;;;;;6241317;23;19942;-88
2022/09/14 04:43:54;;;;;;;;;;;18.10;52.90;;;;;;6241819;22;20308;-87
2022/09/14 04:46:21;;;;;;;;;;;18.10;52.90;;;;;;6265150;22;19919;-86
2022/09/14 04:48:47;;;;;;;;;;;18.10;53.00;;;;;;6241415;22;19946;-87
2022/09/14 04:51:17;;;;;;;;;;;18.10;53.00;;;;;;6241724;22;19934;-91
2022/09/14 04:53:43;;;;;;;;;;;18.10;53.10;;;;;;6242425;22;19916;-87
2022/09/14 04:56:10;;;;;;;;;;;18.10;53.10;;;;;;6243367;22;19912;-88
2022/09/14 04:58:39;;;;;;;;;;;18.20;53.10;;;;;;6242294;22;19983;-88
2022/09/14 05:01:07;;;;;;;;;;;18.10;53.00;;;;;;6240356;22;20314;-87
2022/09/14 05:03:33;;;;;;;;;;;18.20;53.10;;;;;;6247084;22;19912;-87
2022/09/14 05:06:02;;;;;;;;;;;18.20;53.10;;;;;;6242356;22;19927;-87
2022/09/14 05:08:28;;;;;;;;;;;18.20;53.20;;;;;;6241642;22;20355;-88
2022/09/14 05:10:54;;;;;;;;;;;18.20;53.20;;;;;;6240351;23;19939;-87
2022/09/14 05:13:20;;;;;;;;;;;18.30;53.30;;;;;;6240933;22;19994;-88
2022/09/14 05:15:45;;;;;;;;;;;18.30;53.20;;;;;;6243970;23;19904;-85
2022/09/14 05:18:10;;;;;;;;;;;18.30;53.30;;;;;;6243041;22;19986;-88
2022/09/14 05:20:36;;;;;;;;;;;18.30;53.30;;;;;;6243150;23;19912;-88
2022/09/14 05:23:02;;;;;;;;;;;18.40;53.30;;;;;;6239766;22;19955;-84
2022/09/14 05:25:27;;;;;;;;;;;18.40;53.30;;;;;;6243511;23;19915;-88
2022/09/14 05:27:53;;;;;;;;;;;18.40;53.30;;;;;;6240787;22;20314;-85
2022/09/14 05:30:18;;;;;;;;;;;18.50;53.20;;;;;;6239239;23;19912;-91
2022/09/14 05:32:44;;;;;;;;;;;18.50;53.20;;;;;;6242181;22;19983;-91
2022/09/14 05:35:10;;;;;;;;;;;18.50;53.30;;;;;;6240230;23;19915;-86
2022/09/14 05:37:35;;;;;;;;;;;18.60;53.30;;;;;;6241278;22;20026;-85
2022/09/14 05:40:01;;;;;;;;;;;18.60;53.30;;;;;;6239665;22;19908;-85
2022/09/14 05:42:26;;;;;;;;;;;18.70;53.30;;;;;;6239729;23;20331;-88
2022/09/14 05:44:51;;;;;;;;;;;18.70;53.30;;;;;;6242264;22;19994;-85
2022/09/14 05:47:17;;;;;;;;;;;18.70;53.40;;;;;;6239817;23;19919;-88
2022/09/14 05:49:42;;;;;;;;;;;18.70;53.50;;;;;;6241064;22;19974;-88
2022/09/14 05:52:08;;;;;;;;;;;18.80;53.60;;;;;;6240273;23;19958;-86
2022/09/14 05:54:33;;;;;;;;;;;18.80;53.90;;;;;;6241189;22;19908;-91
2022/09/14 05:56:59;;;;;;;;;;;18.80;54.10;;;;;;6240865;23;19923;-92
2022/09/14 05:59:24;;;;;;;;;;;18.80;54.20;;;;;;6240500;22;19927;-87
2022/09/14 06:01:50;;;;;;;;;;;18.90;54.00;;;;;;6241873;23;19911;-90
2022/09/14 06:04:15;;;;;;;;;;;18.90;54.00;;;;;;6243201;22;19904;-88
2022/09/14 06:06:41;;;;;;;;;;;19.00;54.00;;;;;;6241404;23;19942;-88
2022/09/14 06:09:06;;;;;;;;;;;19.10;53.90;;;;;;6239856;22;19915;-87
2022/09/14 06:11:35;;;;;;;;;;;19.20;53.80;;;;;;6240617;23;20386;-84
2022/09/14 06:14:00;;;;;;;;;;;19.20;53.80;;;;;;6239046;22;20346;-87
2022/09/14 06:16:26;;;;;;;;;;;19.30;53.70;;;;;;6242129;22;19911;-85
2022/09/14 06:18:53;;;;;;;;;;;19.30;53.70;;;;;;6243122;22;20224;-88
2022/09/14 06:21:19;;;;;;;;;;;19.40;53.70;;;;;;6241831;22;19954;-88
2022/09/14 06:23:45;;;;;;;;;;;19.50;53.70;;;;;;6241755;22;19962;-85
2022/09/14 06:26:11;;;;;;;;;;;19.60;53.60;;;;;;6239163;23;19966;-85
2022/09/14 06:28:36;;;;;;;;;;;19.70;53.60;;;;;;6242372;22;19908;-90
2022/09/14 06:31:03;;;;;;;;;;;19.80;53.60;;;;;;6243369;23;19955;-84
2022/09/14 06:33:29;;;;;;;;;;;19.80;53.50;;;;;;6241471;22;20384;-89
2022/09/14 06:35:54;;;;;;;;;;;19.90;53.50;;;;;;6241653;22;19920;-87
2022/09/14 06:38:20;;;;;;;;;;;19.90;53.50;;;;;;6241124;22;19917;-87
2022/09/14 06:40:58;;;;;;;;;;;20.00;53.40;;;;;;6240755;22;19982;-87
2022/09/14 06:43:24;;;;;;;;;;;20.10;53.40;;;;;;6239364;22;19915;-87
2022/09/14 06:45:56;;;;;;;;;;;20.20;53.30;;;;;;6239886;23;19916;-91
2022/09/14 06:48:22;;;;;;;;;;;20.30;53.30;;;;;;6239347;22;20454;-86
2022/09/14 06:50:47;;;;;;;;;;;20.30;53.20;;;;;;6240532;23;19915;-87
2022/09/14 06:53:13;;;;;;;;;;;20.40;53.30;;;;;;6239705;22;19957;-87
2022/09/14 06:55:38;;;;;;;;;;;20.40;53.20;;;;;;6241310;23;19914;-87
2022/09/14 06:58:03;;;;;;;;;;;20.50;53.20;;;;;;6240981;22;20279;-87
2022/09/14 07:00:29;;;;;;;;;;;20.60;53.10;;;;;;6239697;23;19970;-87
2022/09/14 07:02:54;;;;;;;;;;;20.60;53.00;;;;;;6235930;22;19912;-87
2022/09/14 07:05:21;;;;;;;;;;;20.70;53.00;;;;;;6236874;23;20274;-87
2022/09/14 07:07:49;;;;;;;;;;;20.70;52.90;;;;;;6235313;22;20031;-87
2022/09/14 07:10:15;;;;;;;;;;;20.80;52.80;;;;;;6235525;23;20338;-84
2022/09/14 07:12:40;;;;;;;;;;;20.90;52.80;;;;;;6238082;22;20283;-90
2022/09/14 07:15:06;;;;;;;;;;;20.90;52.70;;;;;;6238579;23;19912;-87
2022/09/14 07:17:32;;;;;;;;;;;21.00;52.70;;;;;;6237478;22;19915;-92
2022/09/14 07:19:57;;;;;;;;;;;21.10;52.60;;;;;;6235743;22;19915;-85
2022/09/14 07:22:23;;;;;;;;;;;21.20;52.50;;;;;;6236618;23;19911;-91
2022/09/14 07:24:49;;;;;;;;;;;21.20;52.50;;;;;;6237448;22;19912;-88
2022/09/14 07:27:14;;;;;;;;;;;21.30;52.50;;;;;;6237077;23;19919;-91
2022/09/14 07:29:40;;;;;;;;;;;21.50;52.40;;;;;;6250220;22;19911;-88
2022/09/14 07:32:05;;;;;;;;;;;21.60;52.30;;;;;;6235337;23;19912;-88
2022/09/14 07:34:31;;;;;;;;;;;21.80;52.10;;;;;;6234916;22;19974;-87
2022/09/14 07:36:59;;;;;;;;;;;22.00;52.00;;;;;;6236811;23;19912;-91
2022/09/14 07:39:24;;;;;;;;;;;22.20;52.10;;;;;;6235777;22;20359;-88
2022/09/14 07:41:50;;;;;;;;;;;22.40;52.00;;;;;;6236896;23;19951;-85
2022/09/14 07:44:18;;;;;;;;;;;22.60;51.60;;;;;;6236050;22;19908;-88
2022/09/14 07:46:44;;;;;;;;;;;22.80;50.90;;;;;;6237035;22;19946;-87
2022/09/14 07:49:10;;;;;;;;;;;23.00;50.50;;;;;;6236556;22;19908;-87
2022/09/14 07:51:36;;;;;;;;;;;23.20;50.10;;;;;;6236742;22;19912;-89
2022/09/14 07:54:03;;;;;;;;;;;23.30;49.80;;;;;;6234784;22;19938;-87
2022/09/14 07:56:28;;;;;;;;;;;23.40;49.60;;;;;;6235282;23;20091;-85
2022/09/14 07:58:55;;;;;;;;;;;23.50;49.50;;;;;;6235959;22;20026;-85
2022/09/14 08:01:21;;;;;;;;;;;23.70;48.70;;;;;;6237648;22;19919;-85
2022/09/14 08:03:47;;;;;;;;;;;23.80;48.50;;;;;;6237031;22;20600;-88
2022/09/14 08:06:14;;;;;;;;;;;23.90;48.50;;;;;;6235482;23;19920;-85
2022/09/14 08:08:41;;;;;;;;;;;24.00;48.30;;;;;;6235214;22;19912;-89
2022/09/14 08:11:10;;;;;;;;;;;24.10;48.00;;;;;;6233025;23;19918;-85
2022/09/14 08:13:36;;;;;;;;;;;24.20;47.30;;;;;;6235578;22;19919;-91
2022/09/14 08:16:02;;;;;;;;;;;24.20;46.90;;;;;;6236653;23;19942;-87
2022/09/14 08:18:31;;;;;;;;;;;24.20;46.80;;;;;;6236196;22;19935;-87
2022/09/14 08:21:02;;;;;;;;;;;24.20;46.90;;;;;;6260902;22;19916;-87
2022/09/14 08:23:28;;;;;;;;;;;24.30;46.80;;;;;;6239383;22;19911;-88
2022/09/14 08:25:53;;;;;;;;;;;24.40;46.70;;;;;;6238803;22;19919;-87
2022/09/14 08:28:19;;;;;;;;;;;24.50;46.70;;;;;;6240000;22;19998;-89
2022/09/14 08:30:45;;;;;;;;;;;24.60;46.40;;;;;;6237341;23;20294;-86
2022/09/14 08:33:11;;;;;;;;;;;24.70;46.40;;;;;;6239239;22;19911;-86
2022/09/14 08:35:43;;;;;;;;;;;24.80;46.30;;;;;;6237135;23;19911;-92
2022/09/14 08:38:09;;;;;;;;;;;25.00;46.10;;;;;;6239302;22;19958;-92
2022/09/14 08:40:41;;;;;;;;;;;25.10;45.30;;;;;;6236128;23;19912;-92
2022/09/14 08:43:08;;;;;;;;;;;25.20;45.50;;;;;;6238962;22;19912;-86
2022/09/14 08:45:34;;;;;;;;;;;25.30;45.00;;;;;;6236017;23;19915;-84
2022/09/14 08:47:59;;;;;;;;;;;25.50;44.70;;;;;;6236975;22;19922;-88
2022/09/14 08:50:29;;;;;;;;;;;25.50;44.30;;;;;;6233380;23;19943;-88
2022/09/14 08:52:55;;;;;;;;;;;25.50;44.30;;;;;;6238197;22;19991;-87
2022/09/14 08:55:20;;;;;;;;;;;25.60;44.00;;;;;;6239552;23;19946;-90
2022/09/14 08:57:48;;;;;;;;;;;25.70;43.80;;;;;;6237635;22;19958;-90
2022/09/14 09:00:15;;;;;;;;;;;25.80;43.70;;;;;;6259015;22;19919;-91
2022/09/14 09:03:00;;;;;;;;;;;25.80;43.50;;;;;;6236430;22;19958;-87
2022/09/14 09:05:31;;;;;;;;;;;25.80;43.30;;;;;;6237906;23;20076;-91
2022/09/14 09:07:57;;;;;;;;;;;25.80;43.20;;;;;;6238622;22;19911;-85
2022/09/14 09:10:24;;;;;;;;;;;25.90;42.90;;;;;;6235443;22;19911;-89
2022/09/14 09:12:52;;;;;;;;;;;25.90;43.00;;;;;;6239070;22;19946;-85
2022/09/14 09:15:26;;;;;;;;;;;25.90;42.90;;;;;;6236095;23;19918;-90
2022/09/14 09:18:15;;;;;;;;;;;25.90;42.50;;;;;;6235540;22;20806;-88
2022/09/14 09:20:51;;;;;;;;;;;26.00;42.50;;;;;;6223479;23;20381;-87
2022/09/14 09:23:18;;;;;;;;;;;25.90;42.10;;;;;;6236547;22;19912;-91
2022/09/14 09:25:43;;;;;;;;;;;25.90;41.90;;;;;;6237949;22;19923;-87
2022/09/14 09:28:10;;;;;;;;;;;25.80;41.80;;;;;;6237718;22;20243;-84
2022/09/14 09:30:36;;;;;;;;;;;25.80;41.60;;;;;;6233320;23;19911;-88
2022/09/14 09:33:03;;;;;;;;;;;25.80;41.70;;;;;;6235758;22;19911;-88
2022/09/14 09:35:30;;;;;;;;;;;25.80;41.80;;;;;;6238615;22;20286;-88
2022/09/14 09:37:55;;;;;;;;;;;25.80;41.80;;;;;;6237847;22;19923;-85
2022/09/14 09:40:27;;;;;;;;;;;25.80;41.90;;;;;;6233039;23;19912;-85
2022/09/14 09:43:25;;;;;;;;;;;25.90;41.80;;;;;;6236926;22;19911;-92
2022/09/14 09:46:02;;;;;;;;;;;25.90;41.70;;;;;;6186496;22;19927;-89
2022/09/14 09:48:40;;;;;;;;;;;25.80;41.60;;;;;;6238575;22;19935;-85
2022/09/14 09:51:17;;;;;;;;;;;25.80;41.40;;;;;;6234862;23;19935;-87
2022/09/14 09:53:48;;;;;;;;;;;25.80;41.50;;;;;;6238277;22;19920;-93
2022/09/14 09:56:21;;;;;;;;;;;25.80;41.50;;;;;;6236510;23;20010;-86
2022/09/14 09:58:50;;;;;;;;;;;25.70;41.70;;;;;;6235650;22;19918;-85
2022/09/14 10:01:27;;;;;;;;;;;25.80;41.70;;;;;;6235675;23;20600;-87
2022/09/14 10:04:04;;;;;;;;;;;25.80;41.70;;;;;;6238215;22;19919;-92
2022/09/14 10:06:37;;;;;;;;;;;25.80;41.70;;;;;;6237369;22;20339;-89
2022/09/14 10:09:10;;;;;;;;;;;25.80;41.80;;;;;;6232422;22;19970;-89
2022/09/14 10:11:40;;;;;;;;;;;25.80;41.70;;;;;;6238490;22;19912;-92
2022/09/14 10:14:19;;;;;;;;;;;25.90;41.60;;;;;;6235932;22;19919;-86
2022/09/14 10:16:49;;;;;;;;;;;25.90;41.90;;;;;;6235868;23;19918;-88
2022/09/14 10:19:20;;;;;;;;;;;25.80;42.30;;;;;;6233951;22;19919;-86
2022/09/14 10:22:03;;;;;;;;;;;25.60;42.80;;;;;;6236065;23;19912;-91
2022/09/14 10:24:29;;;;;;;;;;;25.50;43.20;;;;;;6237007;22;20295;-88
2022/09/14 10:26:54;;;;;;;;;;;25.30;43.80;;;;;;6236743;22;20251;-88
2022/09/14 10:29:25;;;;;;;;;;;25.20;44.50;;;;;;6232951;22;19919;-85
2022/09/14 10:31:52;;;;;;;;;;;25.00;45.50;;;;;;6237424;22;19911;-91
2022/09/14 10:34:19;;;;;;;;;;;24.80;47.00;;;;;;6234008;22;19990;-85
2022/09/14 10:36:49;;;;;;;;;;;24.70;49.00;;;;;;6235534;22;20251;-87
2022/09/14 10:39:15;;;;;;;;;;;24.50;50.90;;;;;;6231391;22;19942;-88
2022/09/14 10:41:40;;;;;;;;;;;24.40;53.10;;;;;;6237659;22;19919;-91
2022/09/14 10:44:24;;;;;;;;;;;24.30;55.00;;;;;;6236646;22;19907;-90
2022/09/14 10:47:00;;;;;;;;;;;24.30;56.50;;;;;;6239751;23;20093;-90
2022/09/14 10:49:30;;;;;;;;;;;24.20;57.40;;;;;;6232949;22;19918;-85
2022/09/14 10:52:15;;;;;;;;;;;24.10;58.00;;;;;;6237604;22;19966;-89
2022/09/14 10:54:51;;;;;;;;;;;24.00;58.50;;;;;;6234120;22;19907;-86
2022/09/14 10:57:36;;;;;;;;;;;24.00;58.80;;;;;;6233997;23;19915;-85
2022/09/14 11:00:11;;;;;;;;;;;23.90;58.70;;;;;;6240223;22;20010;-86
2022/09/14 11:02:46;;;;;;;;;;;23.80;59.00;;;;;;6235926;22;19916;-88
2022/09/14 11:05:17;;;;;;;;;;;23.70;59.70;;;;;;6238393;22;19907;-87
2022/09/14 11:07:49;;;;;;;;;;;23.70;60.30;;;;;;6236705;22;19927;-84
2022/09/14 11:10:15;;;;;;;;;;;23.60;61.00;;;;;;6232799;23;19915;-88
2022/09/14 11:12:40;;;;;;;;;;;23.50;61.20;;;;;;6237962;22;19915;-92
2022/09/14 11:15:25;;;;;;;;;;;23.50;61.50;;;;;;6235895;23;19914;-91
2022/09/14 11:17:50;;;;;;;;;;;23.50;61.70;;;;;;6236440;22;19919;-89
2022/09/14 11:20:24;;;;;;;;;;;23.50;62.20;;;;;;6234612;22;19915;-89
2022/09/14 11:23:09;;;;;;;;;;;23.50;62.40;;;;;;6235739;22;20185;-89
2022/09/14 11:25:40;;;;;;;;;;;23.30;61.80;;;;;;6238092;23;20586;-86
2022/09/14 11:28:12;;;;;;;;;;;23.20;62.20;;;;;;6235629;22;19908;-86
2022/09/14 11:30:44;;;;;;;;;;;23.20;62.70;;;;;;6235119;22;20343;-87
2022/09/14 11:33:28;;;;;;;;;;;23.20;62.80;;;;;;6236283;22;19950;-90
2022/09/14 11:35:57;;;;;;;;;;;23.20;63.00;;;;;;6235661;23;20311;-88
2022/09/14 11:38:27;;;;;;;;;;;23.20;63.00;;;;;;6237743;22;19990;-86
2022/09/14 11:41:00;;;;;;;;;;;23.20;62.90;;;;;;6234119;22;20679;-89
2022/09/14 11:43:44;;;;;;;;;;;23.20;63.10;;;;;;6238116;22;19923;-87
2022/09/14 11:46:11;;;;;;;;;;;23.10;63.30;;;;;;6237558;22;20006;-89
2022/09/14 11:48:48;;;;;;;;;;;23.10;63.20;;;;;;6236958;22;20015;-89
2022/09/14 11:51:16;;;;;;;;;;;23.10;63.50;;;;;;6235813;22;20321;-87
2022/09/14 11:53:42;;;;;;;;;;;23.10;63.60;;;;;;6238226;22;19907;-87
2022/09/14 11:56:23;;;;;;;;;;;23.20;63.70;;;;;;6237575;23;19911;-89
2022/09/14 11:58:48;;;;;;;;;;;23.20;63.70;;;;;;6238751;22;19961;-87
2022/09/14 12:01:34;;;;;;;;;;;23.30;63.80;;;;;;6237654;23;19911;-88
2022/09/14 12:03:59;;;;;;;;;;;23.40;63.80;;;;;;6238532;22;19927;-90
2022/09/14 12:06:28;;;;;;;;;;;23.40;63.70;;;;;;6237509;23;19930;-86
2022/09/14 12:08:53;;;;;;;;;;;23.40;63.50;;;;;;6238128;22;20377;-88
2022/09/14 12:11:23;;;;;;;;;;;23.50;63.40;;;;;;6235915;23;19911;-89
2022/09/14 12:14:09;;;;;;;;;;;23.50;63.30;;;;;;6237220;22;19943;-89
2022/09/14 12:16:54;;;;;;;;;;;23.50;63.30;;;;;;6239216;23;19911;-89
2022/09/14 12:19:20;;;;;;;;;;;23.40;63.10;;;;;;6235942;22;20769;-86
2022/09/14 12:21:46;;;;;;;;;;;23.30;62.90;;;;;;6237058;23;19958;-85
2022/09/14 12:24:13;;;;;;;;;;;23.10;62.60;;;;;;6237885;22;20282;-85
2022/09/14 12:26:39;;;;;;;;;;;23.00;62.70;;;;;;6239627;22;19920;-85
2022/09/14 12:29:06;;;;;;;;;;;22.70;62.60;;;;;;6235522;22;20239;-85
2022/09/14 12:31:34;;;;;;;;;;;22.60;62.80;;;;;;6236835;23;19916;-90
2022/09/14 12:34:06;;;;;;;;;;;22.40;62.80;;;;;;6237758;22;20011;-86
2022/09/14 12:36:37;;;;;;;;;;;22.30;62.80;;;;;;6237757;23;19911;-86
2022/09/14 12:39:23;;;;;;;;;;;22.10;63.10;;;;;;6235355;22;19950;-88
2022/09/14 12:41:48;;;;;;;;;;;22.00;63.40;;;;;;6236703;23;20349;-85
2022/09/14 12:44:33;;;;;;;;;;;21.80;63.80;;;;;;6238045;22;20002;-88
2022/09/14 12:47:17;;;;;;;;;;;21.80;64.00;;;;;;6237852;23;19948;-88
2022/09/14 12:49:43;;;;;;;;;;;21.80;64.20;;;;;;6234802;22;19935;-89
2022/09/14 12:52:16;;;;;;;;;;;21.70;64.30;;;;;;6238162;23;19911;-89
2022/09/14 12:54:44;;;;;;;;;;;21.70;64.70;;;;;;6239700;22;20585;-87
2022/09/14 12:57:10;;;;;;;;;;;21.70;64.80;;;;;;6240994;23;19912;-85
2022/09/14 12:59:35;;;;;;;;;;;21.70;64.80;;;;;;6235221;22;20227;-87
2022/09/14 13:02:07;;;;;;;;;;;21.60;65.00;;;;;;6237085;23;19911;-86
2022/09/14 13:04:34;;;;;;;;;;;21.60;65.10;;;;;;6239497;22;20038;-88
2022/09/14 13:07:01;;;;;;;;;;;21.70;65.40;;;;;;6240189;22;19926;-89
2022/09/14 13:09:28;;;;;;;;;;;21.70;65.60;;;;;;6236682;22;20014;-86
2022/09/14 13:11:59;;;;;;;;;;;21.80;65.50;;;;;;6263020;22;19991;-86
2022/09/14 13:14:27;;;;;;;;;;;21.90;65.60;;;;;;6238001;22;20580;-89
2022/09/14 13:16:53;;;;;;;;;;;21.90;65.50;;;;;;6238994;22;19916;-89
2022/09/14 13:19:26;;;;;;;;;;;21.90;65.20;;;;;;6260378;22;20219;-87
2022/09/14 13:21:53;;;;;;;;;;;21.90;65.30;;;;;;6237797;23;19911;-88
2022/09/14 13:24:24;;;;;;;;;;;21.80;65.30;;;;;;6239832;22;20309;-87
2022/09/14 13:26:50;;;;;;;;;;;21.80;65.40;;;;;;6239680;22;20323;-86
2022/09/14 13:29:16;;;;;;;;;;;21.80;65.20;;;;;;6239444;22;19987;-88
2022/09/14 13:31:43;;;;;;;;;;;21.80;65.10;;;;;;6237426;23;19978;-89
2022/09/14 13:34:16;;;;;;;;;;;21.80;65.40;;;;;;6239329;22;19954;-86
2022/09/14 13:36:42;;;;;;;;;;;21.80;65.20;;;;;;6237641;23;19922;-87
2022/09/14 13:39:21;;;;;;;;;;;21.80;65.00;;;;;;6237707;22;19915;-88
2022/09/14 13:41:46;;;;;;;;;;;21.70;64.90;;;;;;6239802;22;19927;-88
2022/09/14 13:44:12;;;;;;;;;;;21.70;65.20;;;;;;6238685;22;19915;-88
2022/09/14 13:46:38;;;;;;;;;;;21.80;65.30;;;;;;6237427;23;20009;-89
2022/09/14 13:49:05;;;;;;;;;;;21.80;65.20;;;;;;6238221;22;19919;-87
2022/09/14 13:51:30;;;;;;;;;;;21.80;65.10;;;;;;6238506;22;19922;-88
2022/09/14 13:53:57;;;;;;;;;;;21.70;65.10;;;;;;6238478;22;19912;-89
2022/09/14 13:56:30;;;;;;;;;;;21.70;65.10;;;;;;6237602;23;19915;-89
2022/09/14 13:59:07;;;;;;;;;;;21.70;65.10;;;;;;6237345;22;19919;-85
2022/09/14 14:01:36;;;;;;;;;;;21.70;65.30;;;;;;6240071;22;20006;-86
2022/09/14 14:04:01;;;;;;;;;;;21.70;65.50;;;;;;6237528;22;19915;-87
2022/09/14 14:06:28;;;;;;;;;;;21.80;65.50;;;;;;6239100;23;19962;-86
2022/09/14 14:08:56;;;;;;;;;;;21.80;65.40;;;;;;6238885;22;20250;-86
2022/09/14 14:11:26;;;;;;;;;;;21.90;65.30;;;;;;6239043;22;19919;-90
2022/09/14 14:13:51;;;;;;;;;;;22.00;65.10;;;;;;6237168;22;19935;-86
2022/09/14 14:16:19;;;;;;;;;;;22.00;65.00;;;;;;6237253;23;20484;-86
2022/09/14 14:18:55;;;;;;;;;;;22.00;64.90;;;;;;6236900;22;19951;-86
2022/09/14 14:21:20;;;;;;;;;;;22.10;65.10;;;;;;6239283;22;19916;-89
2022/09/14 14:23:46;;;;;;;;;;;22.20;65.10;;;;;;6238991;22;20304;-86
2022/09/14 14:26:17;;;;;;;;;;;22.20;65.10;;;;;;6238907;22;19998;-86